createdAt,value
2017-11-17T00:00:37.314Z,135.30
2017-11-17T00:01:37.290Z,134.70
2017-11-17T00:02:37.240Z,136.10
2017-11-17T00:03:37.204Z,124.80
2017-11-17T00:04:37.447Z,127.90
2017-11-17T00:05:37.125Z,132.90
2017-11-17T00:06:37.095Z,129.40
2017-11-17T00:07:37.058Z,131.40
2017-11-17T00:08:37.022Z,128.80
2017-11-17T00:09:36.986Z,132.30
2017-11-17T00:10:36.949Z,133.30
2017-11-17T00:11:36.914Z,123.60
2017-11-17T00:12:36.877Z,136.30
2017-11-17T00:13:36.853Z,135.30
2017-11-17T00:14:36.821Z,145.40
2017-11-17T00:15:36.762Z,134.10
2017-11-17T00:16:36.741Z,149.20
2017-11-17T00:17:36.693Z,133.60
2017-11-17T00:18:36.658Z,144.20
2017-11-17T00:19:36.646Z,134.40
2017-11-17T00:20:36.587Z,152.20
2017-11-17T00:21:36.575Z,142.10
2017-11-17T00:22:36.507Z,133.20
2017-11-17T00:23:36.470Z,145.20
2017-11-17T00:24:36.440Z,159.50
2017-11-17T00:25:36.404Z,154.70
2017-11-17T00:26:36.371Z,149.00
2017-11-17T00:27:36.332Z,160.10
2017-11-17T00:28:36.296Z,145.30
2017-11-17T00:29:36.259Z,138.20
2017-11-17T00:30:36.223Z,139.80
2017-11-17T00:31:36.186Z,148.80
2017-11-17T00:32:36.152Z,145.20
2017-11-17T00:33:36.106Z,138.60
2017-11-17T00:34:36.077Z,142.60
2017-11-17T00:35:36.062Z,148.40
2017-11-17T00:36:36.004Z,156.90
2017-11-17T00:37:35.967Z,144.80
2017-11-17T00:38:35.924Z,147.10
2017-11-17T00:39:35.895Z,154.70
2017-11-17T00:40:35.855Z,139.30
2017-11-17T00:41:35.825Z,148.50
2017-11-17T00:42:35.819Z,158.70
2017-11-17T00:43:35.749Z,141.80
2017-11-17T00:44:35.709Z,143.80
2017-11-17T00:45:35.670Z,140.50
2017-11-17T00:46:35.670Z,137.70
2017-11-17T00:47:35.611Z,140.70
2017-11-17T00:48:35.562Z,146.80
2017-11-17T00:49:35.531Z,150.10
2017-11-17T00:50:35.490Z,147.90
2017-11-17T00:51:35.463Z,150.00
2017-11-17T00:52:35.416Z,158.60
2017-11-17T00:53:35.372Z,153.90
2017-11-17T00:54:35.343Z,150.80
2017-11-17T00:55:35.308Z,144.80
2017-11-17T00:56:35.269Z,146.30
2017-11-17T00:57:35.231Z,143.30
2017-11-17T00:58:35.190Z,153.90
2017-11-17T00:59:35.164Z,151.60
2017-11-17T01:00:35.140Z,155.80
2017-11-17T01:01:35.110Z,132.10
2017-11-17T01:02:35.046Z,139.80
2017-11-17T01:03:35.015Z,145.20
2017-11-17T01:04:34.987Z,153.90
2017-11-17T01:05:34.949Z,143.00
2017-11-17T01:06:34.910Z,146.50
2017-11-17T01:07:35.223Z,151.70
2017-11-17T01:08:34.830Z,138.40
2017-11-17T01:09:34.799Z,144.20
2017-11-17T01:10:34.755Z,137.20
2017-11-17T01:11:34.727Z,146.20
2017-11-17T01:12:34.745Z,138.70
2017-11-17T01:13:34.639Z,145.20
2017-11-17T01:14:34.613Z,142.60
2017-11-17T01:15:34.600Z,148.50
2017-11-17T01:16:34.536Z,161.50
2017-11-17T01:17:34.513Z,157.90
2017-11-17T01:18:34.463Z,156.10
2017-11-17T01:19:34.425Z,158.90
2017-11-17T01:20:34.409Z,153.70
2017-11-17T01:21:34.351Z,163.80
2017-11-17T01:22:34.327Z,152.80
2017-11-17T01:23:34.277Z,169.90
2017-11-17T01:24:34.243Z,172.60
2017-11-17T01:25:34.206Z,159.00
2017-11-17T01:26:34.169Z,155.90
2017-11-17T01:27:34.137Z,169.00
2017-11-17T01:28:34.103Z,162.00
2017-11-17T01:29:34.058Z,160.80
2017-11-17T01:30:34.041Z,180.60
2017-11-17T01:31:33.987Z,167.30
2017-11-17T01:32:33.950Z,180.20
2017-11-17T01:33:33.934Z,184.70
2017-11-17T01:34:34.109Z,193.80
2017-11-17T01:35:34.024Z,197.90
2017-11-17T01:36:34.114Z,213.60
2017-11-17T01:37:33.765Z,203.60
2017-11-17T01:38:33.729Z,220.10
2017-11-17T01:39:33.692Z,194.40
2017-11-17T01:40:33.652Z,231.80
2017-11-17T01:41:33.615Z,231.20
2017-11-17T01:42:33.582Z,213.10
2017-11-17T01:43:33.544Z,230.10
2017-11-17T01:44:33.508Z,229.70
2017-11-17T01:45:33.472Z,232.50
2017-11-17T01:46:33.430Z,240.80
2017-11-17T01:47:33.395Z,253.20
2017-11-17T01:48:33.361Z,249.30
2017-11-17T01:49:33.320Z,271.60
2017-11-17T01:50:33.298Z,253.30
2017-11-17T01:51:33.246Z,279.70
2017-11-17T01:52:33.450Z,293.10
2017-11-17T01:53:33.172Z,302.80
2017-11-17T01:54:33.137Z,291.60
2017-11-17T01:55:33.099Z,303.70
2017-11-17T01:56:33.078Z,321.00
2017-11-17T01:57:33.026Z,334.90
2017-11-17T01:58:32.988Z,334.80
2017-11-17T01:59:32.946Z,314.50
2017-11-17T02:00:32.954Z,325.30
2017-11-17T02:01:32.878Z,312.00
2017-11-17T02:02:32.863Z,293.20
2017-11-17T02:03:32.817Z,294.50
2017-11-17T02:04:32.783Z,305.90
2017-11-17T02:05:32.729Z,314.40
2017-11-17T02:06:32.685Z,313.70
2017-11-17T02:07:32.655Z,280.90
2017-11-17T02:08:32.619Z,301.70
2017-11-17T02:09:32.583Z,336.40
2017-11-17T02:10:32.549Z,311.40
2017-11-17T02:11:32.525Z,318.90
2017-11-17T02:12:32.468Z,330.50
2017-11-17T02:13:32.430Z,335.70
2017-11-17T02:14:32.394Z,357.50
2017-11-17T02:15:32.371Z,368.60
2017-11-17T02:16:32.334Z,331.10
2017-11-17T02:17:32.279Z,341.50
2017-11-17T02:18:33.009Z,347.70
2017-11-17T02:19:32.209Z,336.90
2017-11-17T02:20:32.172Z,350.90
2017-11-17T02:21:32.132Z,326.40
2017-11-17T02:22:32.298Z,323.30
2017-11-17T02:23:32.060Z,306.10
2017-11-17T02:24:32.025Z,295.80
2017-11-17T02:25:31.985Z,268.20
2017-11-17T02:26:31.948Z,275.30
2017-11-17T02:27:31.910Z,283.20
2017-11-17T02:28:32.606Z,274.80
2017-11-17T02:29:31.838Z,264.90
2017-11-17T02:30:31.815Z,267.60
2017-11-17T02:31:31.761Z,258.80
2017-11-17T02:32:31.726Z,256.70
2017-11-17T02:33:31.689Z,257.30
2017-11-17T02:34:31.902Z,238.20
2017-11-17T02:35:31.615Z,242.20
2017-11-17T02:36:31.578Z,241.30
2017-11-17T02:37:31.539Z,245.20
2017-11-17T02:38:31.504Z,248.30
2017-11-17T02:39:31.906Z,225.80
2017-11-17T02:40:31.428Z,236.20
2017-11-17T02:41:31.391Z,244.80
2017-11-17T02:42:31.353Z,255.50
2017-11-17T02:43:31.316Z,230.60
2017-11-17T02:44:31.281Z,243.60
2017-11-17T02:45:31.255Z,229.70
2017-11-17T02:46:31.205Z,228.80
2017-11-17T02:47:31.168Z,244.20
2017-11-17T02:48:31.134Z,241.90
2017-11-17T02:49:31.102Z,245.20
2017-11-17T02:50:31.060Z,234.60
2017-11-17T02:51:31.025Z,246.10
2017-11-17T02:52:30.992Z,240.60
2017-11-17T02:53:30.948Z,257.70
2017-11-17T02:54:30.910Z,248.60
2017-11-17T02:55:30.873Z,244.10
2017-11-17T02:56:30.837Z,266.70
2017-11-17T02:57:30.801Z,235.40
2017-11-17T02:58:30.771Z,218.80
2017-11-17T02:59:30.727Z,226.60
2017-11-17T03:00:30.692Z,217.00
2017-11-17T03:01:30.653Z,233.60
2017-11-17T03:02:30.615Z,228.60
2017-11-17T03:03:30.579Z,246.90
2017-11-17T03:04:30.541Z,224.70
2017-11-17T03:05:30.507Z,223.50
2017-11-17T03:06:30.463Z,211.20
2017-11-17T03:07:30.432Z,218.00
2017-11-17T03:08:30.394Z,235.30
2017-11-17T03:09:30.358Z,244.50
2017-11-17T03:10:30.321Z,227.30
2017-11-17T03:11:30.283Z,214.90
2017-11-17T03:12:30.249Z,210.80
2017-11-17T03:13:30.211Z,199.10
2017-11-17T03:14:30.172Z,191.80
2017-11-17T03:15:30.137Z,189.40
2017-11-17T03:16:30.099Z,188.50
2017-11-17T03:17:30.062Z,195.50
2017-11-17T03:18:30.025Z,176.80
2017-11-17T03:19:29.989Z,182.90
2017-11-17T03:20:29.952Z,179.60
2017-11-17T03:21:29.915Z,186.20
2017-11-17T03:22:30.102Z,175.50
2017-11-17T03:23:29.842Z,173.10
2017-11-17T03:24:29.804Z,164.60
2017-11-17T03:25:29.767Z,154.00
2017-11-17T03:26:29.725Z,158.70
2017-11-17T03:27:29.692Z,146.70
2017-11-17T03:28:30.387Z,142.80
2017-11-17T03:29:29.621Z,135.10
2017-11-17T03:30:29.584Z,131.70
2017-11-17T03:31:29.545Z,135.80
2017-11-17T03:32:29.516Z,145.40
2017-11-17T03:33:29.488Z,137.80
2017-11-17T03:34:29.432Z,140.20
2017-11-17T03:35:29.401Z,145.30
2017-11-17T03:36:29.360Z,134.70
2017-11-17T03:37:29.327Z,148.00
2017-11-17T03:38:29.290Z,135.10
2017-11-17T03:39:29.260Z,127.80
2017-11-17T03:40:29.215Z,119.40
2017-11-17T03:41:29.179Z,129.00
2017-11-17T03:42:29.146Z,134.80
2017-11-17T03:43:29.103Z,125.20
2017-11-17T03:44:29.071Z,129.30
2017-11-17T03:45:29.025Z,132.60
2017-11-17T03:46:28.989Z,124.60
2017-11-17T03:47:28.956Z,112.60
2017-11-17T03:48:28.918Z,116.60
2017-11-17T03:49:28.880Z,111.40
2017-11-17T03:50:28.844Z,107.50
2017-11-17T03:51:28.807Z,111.00
2017-11-17T03:52:28.773Z,98.30
2017-11-17T03:53:28.730Z,103.10
2017-11-17T03:54:28.697Z,114.00
2017-11-17T03:55:28.658Z,95.70
2017-11-17T03:56:28.622Z,102.30
2017-11-17T03:57:28.585Z,103.00
2017-11-17T03:58:28.549Z,90.10
2017-11-17T03:59:28.510Z,93.50
2017-11-17T04:00:28.481Z,105.50
2017-11-17T04:01:28.435Z,93.10
2017-11-17T04:02:28.401Z,97.80
2017-11-17T04:03:28.362Z,87.60
2017-11-17T04:04:28.325Z,100.40
2017-11-17T04:05:28.286Z,91.90
2017-11-17T04:06:28.254Z,89.40
2017-11-17T04:07:28.215Z,106.00
2017-11-17T04:08:28.175Z,106.30
2017-11-17T04:09:28.140Z,98.10
2017-11-17T04:10:28.101Z,89.20
2017-11-17T04:11:28.071Z,101.90
2017-11-17T04:12:28.029Z,96.20
2017-11-17T04:13:27.990Z,95.70
2017-11-17T04:14:27.956Z,88.70
2017-11-17T04:15:27.918Z,76.30
2017-11-17T04:16:27.881Z,78.40
2017-11-17T04:17:27.843Z,64.70
2017-11-17T04:18:27.807Z,71.60
2017-11-17T04:19:27.769Z,67.10
2017-11-17T04:20:27.735Z,64.60
2017-11-17T04:21:27.694Z,62.40
2017-11-17T04:22:27.659Z,57.50
2017-11-17T04:23:27.621Z,69.80
2017-11-17T04:24:27.588Z,60.00
2017-11-17T04:25:27.552Z,60.60
2017-11-17T04:26:27.511Z,65.40
2017-11-17T04:27:27.491Z,67.60
2017-11-17T04:28:27.436Z,76.10
2017-11-17T04:29:27.398Z,54.90
2017-11-17T04:30:27.362Z,64.40
2017-11-17T04:31:27.322Z,54.80
2017-11-17T04:32:27.289Z,55.70
2017-11-17T04:33:27.251Z,63.30
2017-11-17T04:34:27.210Z,59.60
2017-11-17T04:35:27.177Z,52.30
2017-11-17T04:36:27.140Z,56.30
2017-11-17T04:37:27.099Z,64.90
2017-11-17T04:38:27.063Z,56.20
2017-11-17T04:39:27.026Z,60.10
2017-11-17T04:40:26.995Z,58.10
2017-11-17T04:41:26.953Z,53.00
2017-11-17T04:42:26.917Z,51.30
2017-11-17T04:43:26.880Z,46.40
2017-11-17T04:44:26.840Z,46.60
2017-11-17T04:45:26.803Z,51.80
2017-11-17T04:46:26.766Z,44.50
2017-11-17T04:47:26.728Z,49.10
2017-11-17T04:48:26.696Z,55.00
2017-11-17T04:49:26.653Z,52.20
2017-11-17T04:50:26.620Z,58.70
2017-11-17T04:51:26.596Z,56.80
2017-11-17T04:52:26.545Z,56.70
2017-11-17T04:53:26.505Z,46.60
2017-11-17T04:54:26.473Z,45.00
2017-11-17T04:55:26.433Z,40.80
2017-11-17T04:56:26.396Z,50.50
2017-11-17T04:57:26.354Z,52.60
2017-11-17T04:58:26.320Z,51.70
2017-11-17T04:59:26.287Z,49.20
2017-11-17T05:00:26.246Z,47.50
2017-11-17T05:01:26.208Z,46.40
2017-11-17T05:02:26.173Z,51.40
2017-11-17T05:03:26.137Z,59.00
2017-11-17T05:04:26.117Z,55.10
2017-11-17T05:05:26.059Z,51.50
2017-11-17T05:06:26.025Z,64.00
2017-11-17T05:07:25.995Z,54.00
2017-11-17T05:08:25.951Z,57.80
2017-11-17T05:09:25.912Z,52.40
2017-11-17T05:10:25.874Z,61.20
2017-11-17T05:11:25.838Z,57.50
2017-11-17T05:12:25.802Z,56.80
2017-11-17T05:13:25.762Z,62.60
2017-11-17T05:14:25.725Z,58.70
2017-11-17T05:15:25.687Z,59.20
2017-11-17T05:16:25.652Z,62.20
2017-11-17T05:17:25.616Z,61.40
2017-11-17T05:18:25.577Z,66.30
2017-11-17T05:19:25.547Z,56.10
2017-11-17T05:20:25.502Z,64.60
2017-11-17T05:21:25.464Z,63.00
2017-11-17T05:22:25.459Z,59.70
2017-11-17T05:23:25.827Z,61.90
2017-11-17T05:24:25.355Z,62.20
2017-11-17T05:25:25.358Z,63.00
2017-11-17T05:26:25.282Z,67.40
2017-11-17T05:27:25.243Z,72.20
2017-11-17T05:28:25.206Z,60.90
2017-11-17T05:29:25.169Z,65.70
2017-11-17T05:30:25.133Z,70.60
2017-11-17T05:31:25.096Z,62.00
2017-11-17T05:32:25.059Z,65.10
2017-11-17T05:33:25.020Z,59.20
2017-11-17T05:34:24.984Z,58.20
2017-11-17T05:35:24.948Z,64.00
2017-11-17T05:36:24.909Z,67.60
2017-11-17T05:37:24.871Z,57.60
2017-11-17T05:38:24.834Z,61.10
2017-11-17T05:39:24.797Z,65.10
2017-11-17T05:40:24.761Z,64.30
2017-11-17T05:41:24.725Z,59.60
2017-11-17T05:42:24.686Z,60.00
2017-11-17T05:43:24.649Z,58.00
2017-11-17T05:44:24.611Z,64.80
2017-11-17T05:45:24.582Z,68.20
2017-11-17T05:46:24.556Z,66.10
2017-11-17T05:47:24.501Z,59.00
2017-11-17T05:48:24.469Z,56.10
2017-11-17T05:49:24.435Z,60.10
2017-11-17T05:50:24.399Z,66.70
2017-11-17T05:51:24.351Z,66.60
2017-11-17T05:52:24.314Z,59.10
2017-11-17T05:53:24.279Z,66.60
2017-11-17T05:54:24.241Z,63.10
2017-11-17T05:55:24.204Z,63.40
2017-11-17T05:56:24.167Z,63.00
2017-11-17T05:57:24.129Z,66.20
2017-11-17T05:58:24.091Z,60.50
2017-11-17T05:59:24.055Z,64.70
2017-11-17T06:00:24.019Z,71.10
2017-11-17T06:01:23.980Z,68.10
2017-11-17T06:02:23.942Z,58.70
2017-11-17T06:03:23.905Z,59.60
2017-11-17T06:04:23.870Z,59.10
2017-11-17T06:05:23.830Z,62.00
2017-11-17T06:06:23.794Z,72.90
2017-11-17T06:07:23.765Z,73.80
2017-11-17T06:08:23.751Z,61.30
2017-11-17T06:09:23.679Z,68.20
2017-11-17T06:10:23.646Z,68.10
2017-11-17T06:11:23.908Z,66.40
2017-11-17T06:12:23.572Z,62.90
2017-11-17T06:13:23.532Z,68.50
2017-11-17T06:14:23.496Z,66.80
2017-11-17T06:15:23.460Z,65.50
2017-11-17T06:16:23.421Z,60.10
2017-11-17T06:17:23.384Z,64.30
2017-11-17T06:18:23.348Z,66.20
2017-11-17T06:19:23.310Z,75.40
2017-11-17T06:20:23.280Z,75.40
2017-11-17T06:21:23.230Z,74.20
2017-11-17T06:22:23.199Z,71.90
2017-11-17T06:23:23.162Z,73.90
2017-11-17T06:24:23.124Z,72.20
2017-11-17T06:25:23.087Z,63.90
2017-11-17T06:26:23.049Z,62.90
2017-11-17T06:27:23.013Z,74.90
2017-11-17T06:28:22.975Z,69.40
2017-11-17T06:29:22.938Z,66.30
2017-11-17T06:30:22.899Z,65.80
2017-11-17T06:31:22.865Z,74.80
2017-11-17T06:32:22.824Z,72.00
2017-11-17T06:33:22.787Z,69.80
2017-11-17T06:34:22.755Z,71.80
2017-11-17T06:35:22.714Z,67.30
2017-11-17T06:36:22.716Z,66.50
2017-11-17T06:37:22.637Z,77.80
2017-11-17T06:38:22.599Z,68.00
2017-11-17T06:39:22.563Z,62.60
2017-11-17T06:40:22.530Z,75.00
2017-11-17T06:41:22.487Z,74.10
2017-11-17T06:42:22.450Z,70.10
2017-11-17T06:43:22.413Z,65.90
2017-11-17T06:44:22.377Z,65.00
2017-11-17T06:45:22.338Z,67.00
2017-11-17T06:46:22.302Z,65.40
2017-11-17T06:47:22.264Z,63.50
2017-11-17T06:48:22.224Z,64.90
2017-11-17T06:49:22.189Z,63.00
2017-11-17T06:50:22.152Z,58.20
2017-11-17T06:51:22.116Z,62.10
2017-11-17T06:52:22.096Z,67.20
2017-11-17T06:53:22.039Z,64.70
2017-11-17T06:54:22.002Z,57.40
2017-11-17T06:55:21.966Z,50.90
2017-11-17T06:56:21.927Z,62.50
2017-11-17T06:57:21.888Z,57.50
2017-11-17T06:58:21.854Z,54.30
2017-11-17T06:59:21.814Z,69.90
2017-11-17T07:00:21.777Z,62.70
2017-11-17T07:01:21.738Z,58.60
2017-11-17T07:02:21.797Z,53.00
2017-11-17T07:03:21.665Z,62.70
2017-11-17T07:04:21.624Z,43.00
2017-11-17T07:05:21.588Z,52.40
2017-11-17T07:06:21.552Z,54.20
2017-11-17T07:07:21.514Z,56.60
2017-11-17T07:08:21.478Z,51.40
2017-11-17T07:09:21.438Z,61.30
2017-11-17T07:10:21.419Z,51.10
2017-11-17T07:11:21.365Z,50.00
2017-11-17T07:12:22.014Z,68.30
2017-11-17T07:13:21.290Z,59.40
2017-11-17T07:14:21.249Z,57.30
2017-11-17T07:15:21.211Z,66.70
2017-11-17T07:16:21.173Z,62.40
2017-11-17T07:17:21.138Z,48.20
2017-11-17T07:18:21.100Z,62.10
2017-11-17T07:19:21.061Z,50.50
2017-11-17T07:20:21.151Z,53.00
2017-11-17T07:21:20.990Z,46.60
2017-11-17T07:22:20.948Z,48.60
2017-11-17T07:23:20.910Z,59.00
2017-11-17T07:24:20.872Z,43.70
2017-11-17T07:25:21.376Z,38.10
2017-11-17T07:26:20.799Z,41.90
2017-11-17T07:27:21.314Z,38.70
2017-11-17T07:28:20.722Z,43.40
2017-11-17T07:29:20.682Z,39.50
2017-11-17T07:30:20.646Z,53.10
2017-11-17T07:31:20.607Z,52.70
2017-11-17T07:32:20.641Z,51.20
2017-11-17T07:33:20.531Z,53.80
2017-11-17T07:34:20.509Z,60.30
2017-11-17T07:35:20.456Z,50.00
2017-11-17T07:36:20.419Z,55.30
2017-11-17T07:37:20.380Z,60.30
2017-11-17T07:38:20.343Z,50.00
2017-11-17T07:39:20.305Z,54.60
2017-11-17T07:40:20.287Z,51.70
2017-11-17T07:41:20.230Z,55.00
2017-11-17T07:42:20.191Z,54.40
2017-11-17T07:43:20.150Z,60.20
2017-11-17T07:44:20.148Z,54.20
2017-11-17T07:45:20.079Z,55.30
2017-11-17T07:46:20.092Z,55.60
2017-11-17T07:47:20.005Z,47.80
2017-11-17T07:48:19.964Z,51.70
2017-11-17T07:49:19.928Z,54.00
2017-11-17T07:50:19.889Z,58.10
2017-11-17T07:51:19.864Z,51.90
2017-11-17T07:52:19.816Z,56.10
2017-11-17T07:53:19.779Z,51.80
2017-11-17T07:54:19.737Z,53.50
2017-11-17T07:55:19.703Z,55.40
2017-11-17T07:56:19.669Z,46.90
2017-11-17T07:57:19.629Z,42.90
2017-11-17T07:58:19.591Z,42.10
2017-11-17T07:59:19.553Z,36.50
2017-11-17T08:00:19.518Z,41.20
2017-11-17T08:01:19.481Z,45.90
2017-11-17T08:02:19.445Z,39.20
2017-11-17T08:03:19.409Z,35.50
2017-11-17T08:04:19.375Z,32.80
2017-11-17T08:05:19.338Z,31.00
2017-11-17T08:06:19.303Z,36.20
2017-11-17T08:07:19.269Z,37.70
2017-11-17T08:08:19.248Z,33.60
2017-11-17T08:09:19.200Z,37.70
2017-11-17T08:10:19.165Z,30.90
2017-11-17T08:11:19.134Z,30.00
2017-11-17T08:12:19.099Z,31.20
2017-11-17T08:13:19.063Z,29.80
2017-11-17T08:14:19.029Z,27.40
2017-11-17T08:15:18.995Z,30.40
2017-11-17T08:16:18.965Z,27.00
2017-11-17T08:17:18.930Z,25.80
2017-11-17T08:18:18.897Z,26.90
2017-11-17T08:19:18.864Z,20.50
2017-11-17T08:20:18.827Z,33.40
2017-11-17T08:21:18.814Z,29.30
2017-11-17T08:22:18.764Z,30.30
2017-11-17T08:23:18.741Z,26.60
2017-11-17T08:24:18.701Z,26.70
2017-11-17T08:25:18.662Z,33.30
2017-11-17T08:26:18.632Z,27.10
2017-11-17T08:27:18.598Z,30.80
2017-11-17T08:28:18.566Z,29.50
2017-11-17T08:29:18.547Z,25.70
2017-11-17T08:30:18.502Z,30.00
2017-11-17T08:31:18.472Z,30.80
2017-11-17T08:32:18.439Z,24.60
2017-11-17T08:33:18.411Z,27.80
2017-11-17T08:34:18.379Z,27.20
2017-11-17T08:35:18.358Z,22.70
2017-11-17T08:36:18.317Z,33.70
2017-11-17T08:37:18.285Z,23.60
2017-11-17T08:38:18.257Z,27.80
2017-11-17T08:39:18.227Z,35.50
2017-11-17T08:40:18.197Z,27.00
2017-11-17T08:41:18.168Z,26.40
2017-11-17T08:42:18.140Z,24.00
2017-11-17T08:43:18.110Z,24.60
2017-11-17T08:44:18.082Z,28.70
2017-11-17T08:45:18.054Z,24.90
2017-11-17T08:46:18.026Z,23.80
2017-11-17T08:47:17.998Z,34.70
2017-11-17T08:48:17.973Z,30.20
2017-11-17T08:49:17.944Z,27.00
2017-11-17T08:50:18.123Z,26.10
2017-11-17T08:51:17.889Z,26.30
2017-11-17T08:52:17.861Z,24.20
2017-11-17T08:53:17.832Z,26.80
2017-11-17T08:54:17.807Z,24.90
2017-11-17T08:55:17.779Z,21.30
2017-11-17T08:56:17.760Z,25.30
2017-11-17T08:57:17.722Z,28.00
2017-11-17T08:58:17.695Z,30.50
2017-11-17T08:59:17.662Z,25.50
2017-11-17T09:00:17.633Z,29.50
2017-11-17T09:01:17.603Z,21.90
2017-11-17T09:02:17.571Z,31.80
2017-11-17T09:03:17.542Z,31.80
2017-11-17T09:04:17.509Z,34.00
2017-11-17T09:05:17.479Z,36.00
2017-11-17T09:06:17.448Z,30.70
2017-11-17T09:07:17.416Z,26.50
2017-11-17T09:08:17.385Z,29.60
2017-11-17T09:09:17.346Z,27.10
2017-11-17T09:10:17.326Z,37.00
2017-11-17T09:11:17.292Z,28.20
2017-11-17T09:12:17.255Z,34.90
2017-11-17T09:13:17.221Z,30.60
2017-11-17T09:14:17.189Z,32.80
2017-11-17T09:15:17.154Z,31.30
2017-11-17T09:16:17.121Z,27.90
2017-11-17T09:17:17.088Z,33.70
2017-11-17T09:18:17.054Z,34.60
2017-11-17T09:19:17.023Z,28.10
2017-11-17T09:20:16.991Z,24.50
2017-11-17T09:21:16.991Z,31.60
2017-11-17T09:22:16.922Z,25.80
2017-11-17T09:23:17.275Z,26.80
2017-11-17T09:24:16.859Z,26.10
2017-11-17T09:25:16.828Z,27.30
2017-11-17T09:26:16.799Z,28.90
2017-11-17T09:27:16.767Z,32.30
2017-11-17T09:28:16.735Z,26.60
2017-11-17T09:29:16.712Z,30.10
2017-11-17T09:30:16.677Z,21.90
2017-11-17T09:31:16.653Z,24.80
2017-11-17T09:32:16.622Z,31.00
2017-11-17T09:33:16.594Z,29.80
2017-11-17T09:34:17.940Z,23.60
2017-11-17T09:35:16.541Z,23.50
2017-11-17T09:36:16.579Z,34.50
2017-11-17T09:37:16.488Z,36.30
2017-11-17T09:38:16.463Z,24.70
2017-11-17T09:39:16.438Z,25.10
2017-11-17T09:40:16.421Z,28.80
2017-11-17T09:41:16.389Z,31.20
2017-11-17T09:42:16.368Z,27.70
2017-11-17T09:43:17.547Z,25.20
2017-11-17T09:44:16.317Z,20.30
2017-11-17T09:45:16.295Z,23.10
2017-11-17T09:46:16.269Z,26.90
2017-11-17T09:47:16.262Z,50.20
2017-11-17T09:48:16.226Z,42.70
2017-11-17T09:49:16.200Z,27.90
2017-11-17T09:50:16.179Z,26.50
2017-11-17T09:51:16.179Z,29.00
2017-11-17T09:52:16.139Z,24.70
2017-11-17T09:53:16.121Z,28.90
2017-11-17T09:54:16.092Z,29.10
2017-11-17T09:55:16.072Z,23.90
2017-11-17T09:56:16.100Z,22.50
2017-11-17T09:57:16.027Z,25.50
2017-11-17T09:58:16.163Z,22.80
2017-11-17T09:59:15.988Z,22.30
2017-11-17T10:00:15.968Z,24.50
2017-11-17T10:01:15.945Z,26.20
2017-11-17T10:02:16.167Z,27.10
2017-11-17T10:03:15.908Z,26.70
2017-11-17T10:04:15.883Z,32.20
2017-11-17T10:05:15.861Z,24.10
2017-11-17T10:06:15.843Z,27.00
2017-11-17T10:07:15.816Z,29.90
2017-11-17T10:08:15.794Z,26.60
2017-11-17T10:09:15.769Z,32.80
2017-11-17T10:10:15.747Z,30.50
2017-11-17T10:11:15.721Z,25.00
2017-11-17T10:12:15.700Z,39.00
2017-11-17T10:13:15.674Z,38.10
2017-11-17T10:14:15.649Z,38.10
2017-11-17T10:15:15.625Z,36.80
2017-11-17T10:16:15.603Z,39.40
2017-11-17T10:17:15.577Z,34.80
2017-11-17T10:18:15.556Z,36.00
2017-11-17T10:19:15.531Z,37.30
2017-11-17T10:20:15.507Z,31.20
2017-11-17T10:21:15.485Z,34.50
2017-11-17T10:22:15.463Z,29.50
2017-11-17T10:23:15.961Z,24.70
2017-11-17T10:24:15.420Z,30.60
2017-11-17T10:25:15.396Z,28.70
2017-11-17T10:26:15.369Z,28.80
2017-11-17T10:27:15.355Z,32.40
2017-11-17T10:28:15.332Z,35.70
2017-11-17T10:29:15.313Z,26.50
2017-11-17T10:30:15.291Z,29.80
2017-11-17T10:31:15.270Z,25.20
2017-11-17T10:32:15.248Z,28.00
2017-11-17T10:33:15.229Z,33.40
2017-11-17T10:34:15.208Z,33.80
2017-11-17T10:35:15.279Z,31.30
2017-11-17T10:36:15.165Z,25.10
2017-11-17T10:37:15.142Z,28.10
2017-11-17T10:38:15.123Z,31.00
2017-11-17T10:39:15.104Z,27.30
2017-11-17T10:40:15.081Z,31.60
2017-11-17T10:41:15.079Z,29.80
2017-11-17T10:42:15.043Z,27.20
2017-11-17T10:43:15.015Z,31.20
2017-11-17T10:44:14.996Z,28.90
2017-11-17T10:45:14.973Z,33.30
2017-11-17T10:46:14.951Z,25.50
2017-11-17T10:47:14.932Z,33.60
2017-11-17T10:48:14.911Z,35.60
2017-11-17T10:49:14.888Z,33.40
2017-11-17T10:50:14.868Z,33.00
2017-11-17T10:51:14.847Z,35.00
2017-11-17T10:52:14.829Z,28.70
2017-11-17T10:53:14.806Z,24.60
2017-11-17T10:54:14.786Z,29.90
2017-11-17T10:55:14.764Z,28.20
2017-11-17T10:56:14.744Z,28.00
2017-11-17T10:57:14.724Z,30.90
2017-11-17T10:58:14.857Z,31.00
2017-11-17T10:59:14.698Z,33.10
2017-11-17T11:00:14.770Z,37.10
2017-11-17T11:01:14.648Z,29.90
2017-11-17T11:02:14.861Z,32.90
2017-11-17T11:03:14.600Z,25.60
2017-11-17T11:04:14.581Z,31.30
2017-11-17T11:05:14.562Z,34.00
2017-11-17T11:06:14.540Z,32.40
2017-11-17T11:07:14.520Z,34.70
2017-11-17T11:08:14.497Z,34.40
2017-11-17T11:09:14.481Z,29.30
2017-11-17T11:10:14.458Z,40.20
2017-11-17T11:11:14.439Z,27.70
2017-11-17T11:12:14.425Z,33.80
2017-11-17T11:13:14.397Z,26.70
2017-11-17T11:14:14.378Z,25.60
2017-11-17T11:15:14.360Z,28.20
2017-11-17T11:16:14.337Z,35.20
2017-11-17T11:17:14.316Z,27.20
2017-11-17T11:18:14.297Z,28.80
2017-11-17T11:19:14.277Z,29.60
2017-11-17T11:20:14.263Z,32.20
2017-11-17T11:21:14.266Z,35.80
2017-11-17T11:22:14.214Z,31.80
2017-11-17T11:23:14.198Z,33.10
2017-11-17T11:24:14.180Z,38.10
2017-11-17T11:25:14.156Z,35.00
2017-11-17T11:26:14.136Z,34.30
2017-11-17T11:27:14.116Z,40.30
2017-11-17T11:28:14.101Z,34.40
2017-11-17T11:29:14.076Z,36.90
2017-11-17T11:30:14.056Z,28.90
2017-11-17T11:31:14.036Z,31.00
2017-11-17T11:32:14.016Z,31.80
2017-11-17T11:33:13.992Z,31.40
2017-11-17T11:34:13.977Z,31.30
2017-11-17T11:35:13.955Z,36.00
2017-11-17T11:36:13.937Z,28.00
2017-11-17T11:37:13.915Z,25.90
2017-11-17T11:38:13.907Z,22.50
2017-11-17T11:39:13.877Z,29.70
2017-11-17T11:40:13.859Z,20.30
2017-11-17T11:41:13.838Z,24.60
2017-11-17T11:42:13.858Z,32.70
2017-11-17T11:43:13.804Z,24.40
2017-11-17T11:44:13.780Z,22.30
2017-11-17T11:45:13.758Z,24.40
2017-11-17T11:46:13.762Z,20.10
2017-11-17T11:47:13.728Z,24.80
2017-11-17T11:48:14.196Z,22.70
2017-11-17T11:49:13.679Z,24.70
2017-11-17T11:50:13.662Z,25.00
2017-11-17T11:51:13.641Z,27.40
2017-11-17T11:52:13.623Z,28.60
2017-11-17T11:53:13.604Z,22.40
2017-11-17T11:54:13.583Z,17.90
2017-11-17T11:55:13.563Z,25.00
2017-11-17T11:56:13.544Z,27.30
2017-11-17T11:57:13.541Z,30.70
2017-11-17T11:58:13.507Z,20.40
2017-11-17T11:59:13.968Z,24.40
2017-11-17T12:00:13.559Z,25.20
2017-11-17T12:01:13.478Z,23.70
2017-11-17T12:02:13.452Z,22.00
2017-11-17T12:03:13.409Z,29.00
2017-11-17T12:04:13.391Z,27.00
2017-11-17T12:05:13.379Z,20.60
2017-11-17T12:06:13.350Z,23.90
2017-11-17T12:07:13.358Z,19.60
2017-11-17T12:08:13.312Z,26.30
2017-11-17T12:09:13.293Z,25.10
2017-11-17T12:10:13.285Z,26.40
2017-11-17T12:11:13.255Z,30.70
2017-11-17T12:12:13.239Z,28.60
2017-11-17T12:13:13.213Z,23.00
2017-11-17T12:14:13.193Z,18.50
2017-11-17T12:15:13.293Z,21.00
2017-11-17T12:16:13.150Z,22.00
2017-11-17T12:17:13.130Z,21.40
2017-11-17T12:18:13.108Z,28.00
2017-11-17T12:19:13.114Z,27.90
2017-11-17T12:20:13.580Z,28.80
2017-11-17T12:21:13.040Z,28.60
2017-11-17T12:22:13.019Z,21.20
2017-11-17T12:23:12.993Z,33.10
2017-11-17T12:24:12.968Z,24.90
2017-11-17T12:25:12.941Z,22.00
2017-11-17T12:26:12.938Z,24.10
2017-11-17T12:27:12.899Z,28.90
2017-11-17T12:28:12.863Z,24.20
2017-11-17T12:29:12.834Z,27.10
2017-11-17T12:30:12.809Z,28.40
2017-11-17T12:31:12.799Z,26.80
2017-11-17T12:32:12.757Z,29.10
2017-11-17T12:33:12.801Z,32.00
2017-11-17T12:34:12.694Z,29.40
2017-11-17T12:35:12.666Z,22.50
2017-11-17T12:36:12.638Z,30.80
2017-11-17T12:37:12.761Z,29.10
2017-11-17T12:38:12.577Z,27.70
2017-11-17T12:39:12.887Z,26.30
2017-11-17T12:40:12.515Z,29.50
2017-11-17T12:41:12.679Z,32.10
2017-11-17T12:42:12.453Z,33.40
2017-11-17T12:43:12.427Z,32.90
2017-11-17T12:44:12.395Z,28.90